This is the latest recevied weather packets stored in our database for station/object CE4ERM-13. If no packets are shown the sender has not sent any weather packets the latest 10 day(s).
| Time | Temp. | Humidity | Pressure | Rain* | Wind** | Luminosity | Snow |
|---|---|---|---|---|---|---|---|
| 1778058554 | 19.44° C | 50% | 1016.7 hPa | - | - | - | - |
| 1778058403 | 18.89° C | 41% | 1016.9 hPa | - | - | - | - |
| 1778057953 | 20° C | 47% | 1016.3 hPa | - | - | - | - |
| 1778057353 | 19.44° C | 48% | 1015.8 hPa | - | - | - | - |
| 1778057203 | 18.89° C | 41% | 1016.7 hPa | - | - | - | - |
| 1778056753 | 19.44° C | 47% | 1016.2 hPa | - | - | - | - |
| 1778056603 | 18.89° C | 41% | 1019 hPa | - | - | - | - |
| 1778056009 | 18.89° C | 41% | 1017.8 hPa | - | - | - | - |
| 1778055552 | 18.89° C | 46% | 1015.9 hPa | - | - | - | - |
| 1778055402 | 18.89° C | 41% | 1016.4 hPa | - | - | - | - |
| 1778054951 | 19.44° C | 46% | 1015.1 hPa | - | - | - | - |
| 1778054802 | 18.89° C | 41% | 1015.1 hPa | - | - | - | - |
| 1778054352 | 19.44° C | 46% | 1015.3 hPa | - | - | - | - |
| 1778053751 | 19.44° C | 46% | 1014.5 hPa | - | - | - | - |
| 1778053601 | 19.44° C | 41% | 1016.6 hPa | - | - | - | - |
| 1778053150 | 19.44° C | 46% | 1016.1 hPa | - | - | - | - |
| 1778053000 | 19.44° C | 41% | 1012 hPa | - | - | - | - |
| 1778052550 | 20° C | 45% | 1017 hPa | - | - | - | - |
| 1778052400 | 19.44° C | 41% | 1018.3 hPa | - | - | - | - |
| 1778051950 | 20° C | 45% | 1015.5 hPa | - | - | - | - |
| 1778051800 | 19.44° C | 41% | 1016.6 hPa | - | - | - | - |
| 1778051200 | 19.44° C | 41% | 1019.6 hPa | - | - | - | - |
| 1778050750 | 20° C | 45% | 1017 hPa | - | - | - | - |
| 1778050150 | 20.56° C | 44% | 1017.2 hPa | - | - | - | - |
| 1778050000 | 20° C | 41% | 1017.4 hPa | - | - | - | - |
* Rain since midnight (hover to see other rain measurements)
** Current wind speed in m/s (hover to see current wind gust speed)